sensor_id;sensor_type;location;lat;lon;timestamp;P1;durP1;ratioP1;P2;durP2;ratioP2
75012;SDS011;63567;49.956;20.130;2024-03-06T00:00:19;35.47;;;17.05;;
75012;SDS011;63567;49.956;20.130;2024-03-06T00:02:44;40.87;;;18.67;;
75012;SDS011;63567;49.956;20.130;2024-03-06T00:05:10;37.07;;;17.77;;
75012;SDS011;63567;49.956;20.130;2024-03-06T00:07:35;34.67;;;17.67;;
75012;SDS011;63567;49.956;20.130;2024-03-06T00:10:00;38.85;;;18.15;;
75012;SDS011;63567;49.956;20.130;2024-03-06T00:12:26;35.77;;;17.87;;
75012;SDS011;63567;49.956;20.130;2024-03-06T00:14:51;35.20;;;17.27;;
75012;SDS011;63567;49.956;20.130;2024-03-06T00:17:16;34.07;;;17.80;;
75012;SDS011;63567;49.956;20.130;2024-03-06T00:19:41;38.27;;;17.33;;
75012;SDS011;63567;49.956;20.130;2024-03-06T00:22:08;38.08;;;18.10;;
75012;SDS011;63567;49.956;20.130;2024-03-06T00:24:34;39.58;;;18.33;;
75012;SDS011;63567;49.956;20.130;2024-03-06T00:27:00;37.53;;;18.60;;
75012;SDS011;63567;49.956;20.130;2024-03-06T00:29:25;37.73;;;18.30;;
75012;SDS011;63567;49.956;20.130;2024-03-06T00:31:50;35.20;;;17.70;;
75012;SDS011;63567;49.956;20.130;2024-03-06T00:34:16;36.30;;;17.97;;
75012;SDS011;63567;49.956;20.130;2024-03-06T00:36:42;37.70;;;17.80;;
75012;SDS011;63567;49.956;20.130;2024-03-06T00:39:11;35.97;;;16.65;;
75012;SDS011;63567;49.956;20.130;2024-03-06T00:41:39;39.00;;;18.35;;
75012;SDS011;63567;49.956;20.130;2024-03-06T00:44:04;35.43;;;17.10;;
75012;SDS011;63567;49.956;20.130;2024-03-06T00:46:30;35.45;;;17.73;;
75012;SDS011;63567;49.956;20.130;2024-03-06T00:48:55;36.10;;;16.77;;
75012;SDS011;63567;49.956;20.130;2024-03-06T00:51:21;34.88;;;16.45;;
75012;SDS011;63567;49.956;20.130;2024-03-06T00:53:46;33.87;;;16.30;;
75012;SDS011;63567;49.956;20.130;2024-03-06T00:56:11;38.83;;;17.97;;
75012;SDS011;63567;49.956;20.130;2024-03-06T00:58:37;36.60;;;16.13;;
75012;SDS011;63567;49.956;20.130;2024-03-06T01:01:02;31.57;;;15.47;;
75012;SDS011;63567;49.956;20.130;2024-03-06T01:03:27;30.77;;;15.57;;
75012;SDS011;63567;49.956;20.130;2024-03-06T01:05:53;28.23;;;13.88;;
75012;SDS011;63567;49.956;20.130;2024-03-06T01:08:19;32.67;;;15.77;;
75012;SDS011;63567;49.956;20.130;2024-03-06T01:10:45;31.83;;;15.45;;
75012;SDS011;63567;49.956;20.130;2024-03-06T01:13:10;29.20;;;14.73;;
75012;SDS011;63567;49.956;20.130;2024-03-06T01:15:36;34.83;;;16.08;;
75012;SDS011;63567;49.956;20.130;2024-03-06T01:18:02;38.35;;;18.40;;
75012;SDS011;63567;49.956;20.130;2024-03-06T01:20:28;40.00;;;18.40;;
75012;SDS011;63567;49.956;20.130;2024-03-06T01:22:53;39.37;;;18.27;;
75012;SDS011;63567;49.956;20.130;2024-03-06T01:25:19;37.93;;;17.43;;
75012;SDS011;63567;49.956;20.130;2024-03-06T01:27:44;37.73;;;17.80;;
75012;SDS011;63567;49.956;20.130;2024-03-06T01:30:09;39.13;;;18.93;;
75012;SDS011;63567;49.956;20.130;2024-03-06T01:32:35;37.30;;;17.13;;
75012;SDS011;63567;49.956;20.130;2024-03-06T01:35:00;36.25;;;17.50;;
75012;SDS011;63567;49.956;20.130;2024-03-06T01:37:25;38.88;;;16.38;;
75012;SDS011;63567;49.956;20.130;2024-03-06T01:39:51;39.97;;;17.57;;
75012;SDS011;63567;49.956;20.130;2024-03-06T01:42:16;37.60;;;18.15;;
75012;SDS011;63567;49.956;20.130;2024-03-06T01:44:42;38.67;;;17.08;;
75012;SDS011;63567;49.956;20.130;2024-03-06T01:47:07;40.73;;;17.13;;
75012;SDS011;63567;49.956;20.130;2024-03-06T01:49:32;40.67;;;19.80;;
75012;SDS011;63567;49.956;20.130;2024-03-06T01:51:58;48.28;;;22.25;;
75012;SDS011;63567;49.956;20.130;2024-03-06T01:54:24;45.55;;;22.45;;
75012;SDS011;63567;49.956;20.130;2024-03-06T01:56:50;48.47;;;22.50;;
75012;SDS011;63567;49.956;20.130;2024-03-06T01:59:17;48.67;;;22.23;;
75012;SDS011;63567;49.956;20.130;2024-03-06T02:01:45;44.72;;;20.35;;
75012;SDS011;63567;49.956;20.130;2024-03-06T02:04:11;43.97;;;22.38;;
75012;SDS011;63567;49.956;20.130;2024-03-06T02:06:40;45.35;;;20.42;;
75012;SDS011;63567;49.956;20.130;2024-03-06T02:09:06;46.20;;;21.33;;
75012;SDS011;63567;49.956;20.130;2024-03-06T02:11:32;46.95;;;21.92;;
75012;SDS011;63567;49.956;20.130;2024-03-06T02:13:57;47.33;;;23.10;;
75012;SDS011;63567;49.956;20.130;2024-03-06T02:16:23;52.70;;;25.20;;
75012;SDS011;63567;49.956;20.130;2024-03-06T02:18:54;53.20;;;26.13;;
75012;SDS011;63567;49.956;20.130;2024-03-06T02:21:24;53.17;;;24.45;;
75012;SDS011;63567;49.956;20.130;2024-03-06T02:23:50;44.53;;;20.15;;
75012;SDS011;63567;49.956;20.130;2024-03-06T02:26:19;45.97;;;21.17;;
75012;SDS011;63567;49.956;20.130;2024-03-06T02:28:48;50.50;;;21.75;;
75012;SDS011;63567;49.956;20.130;2024-03-06T02:31:15;44.88;;;20.23;;
75012;SDS011;63567;49.956;20.130;2024-03-06T02:33:41;43.67;;;19.80;;
75012;SDS011;63567;49.956;20.130;2024-03-06T02:36:07;45.97;;;20.10;;
75012;SDS011;63567;49.956;20.130;2024-03-06T02:38:32;40.20;;;19.53;;
75012;SDS011;63567;49.956;20.130;2024-03-06T02:40:58;40.63;;;17.52;;
75012;SDS011;63567;49.956;20.130;2024-03-06T02:43:23;40.20;;;17.43;;
75012;SDS011;63567;49.956;20.130;2024-03-06T02:45:48;36.67;;;17.50;;
75012;SDS011;63567;49.956;20.130;2024-03-06T02:48:13;36.97;;;16.33;;
75012;SDS011;63567;49.956;20.130;2024-03-06T02:50:39;34.47;;;17.30;;
75012;SDS011;63567;49.956;20.130;2024-03-06T02:53:04;40.00;;;17.47;;
75012;SDS011;63567;49.956;20.130;2024-03-06T02:55:29;40.13;;;17.97;;
75012;SDS011;63567;49.956;20.130;2024-03-06T02:57:55;36.70;;;17.20;;
75012;SDS011;63567;49.956;20.130;2024-03-06T03:00:20;40.03;;;17.80;;
75012;SDS011;63567;49.956;20.130;2024-03-06T03:02:46;36.33;;;17.00;;
75012;SDS011;63567;49.956;20.130;2024-03-06T03:05:12;33.10;;;15.33;;
75012;SDS011;63567;49.956;20.130;2024-03-06T03:10:21;35.85;;;15.68;;
75012;SDS011;63567;49.956;20.130;2024-03-06T03:12:49;34.22;;;14.88;;
75012;SDS011;63567;49.956;20.130;2024-03-06T03:15:15;31.42;;;14.70;;
75012;SDS011;63567;49.956;20.130;2024-03-06T03:17:40;32.03;;;14.10;;
75012;SDS011;63567;49.956;20.130;2024-03-06T03:20:06;29.98;;;13.85;;
75012;SDS011;63567;49.956;20.130;2024-03-06T03:22:38;29.90;;;14.02;;
75012;SDS011;63567;49.956;20.130;2024-03-06T03:25:11;28.67;;;14.57;;
75012;SDS011;63567;49.956;20.130;2024-03-06T03:27:40;26.17;;;12.68;;
75012;SDS011;63567;49.956;20.130;2024-03-06T03:30:09;30.38;;;13.20;;
75012;SDS011;63567;49.956;20.130;2024-03-06T03:32:35;28.73;;;13.07;;
75012;SDS011;63567;49.956;20.130;2024-03-06T03:35:01;28.73;;;13.27;;
75012;SDS011;63567;49.956;20.130;2024-03-06T03:37:27;27.27;;;13.43;;
75012;SDS011;63567;49.956;20.130;2024-03-06T03:39:53;27.25;;;13.45;;
75012;SDS011;63567;49.956;20.130;2024-03-06T03:42:18;28.70;;;13.80;;
75012;SDS011;63567;49.956;20.130;2024-03-06T03:44:44;24.63;;;12.00;;
75012;SDS011;63567;49.956;20.130;2024-03-06T03:47:09;27.33;;;13.97;;
75012;SDS011;63567;49.956;20.130;2024-03-06T03:49:35;26.55;;;13.13;;
75012;SDS011;63567;49.956;20.130;2024-03-06T03:52:01;28.95;;;13.43;;
75012;SDS011;63567;49.956;20.130;2024-03-06T03:54:26;27.53;;;13.43;;
75012;SDS011;63567;49.956;20.130;2024-03-06T03:56:51;28.03;;;13.40;;
75012;SDS011;63567;49.956;20.130;2024-03-06T03:59:17;29.77;;;13.47;;
75012;SDS011;63567;49.956;20.130;2024-03-06T04:01:44;27.27;;;13.27;;
75012;SDS011;63567;49.956;20.130;2024-03-06T04:04:10;25.08;;;13.43;;
75012;SDS011;63567;49.956;20.130;2024-03-06T04:06:35;28.03;;;13.57;;
75012;SDS011;63567;49.956;20.130;2024-03-06T04:09:01;26.27;;;13.43;;
75012;SDS011;63567;49.956;20.130;2024-03-06T04:11:26;26.80;;;12.70;;
75012;SDS011;63567;49.956;20.130;2024-03-06T04:13:51;27.53;;;13.67;;
75012;SDS011;63567;49.956;20.130;2024-03-06T04:16:17;25.63;;;12.37;;
75012;SDS011;63567;49.956;20.130;2024-03-06T04:18:43;25.15;;;12.52;;
75012;SDS011;63567;49.956;20.130;2024-03-06T04:21:10;25.70;;;12.35;;
75012;SDS011;63567;49.956;20.130;2024-03-06T04:23:35;23.70;;;11.37;;
75012;SDS011;63567;49.956;20.130;2024-03-06T04:26:01;23.00;;;11.25;;
75012;SDS011;63567;49.956;20.130;2024-03-06T04:28:26;21.50;;;11.37;;
75012;SDS011;63567;49.956;20.130;2024-03-06T04:30:51;22.30;;;11.77;;
75012;SDS011;63567;49.956;20.130;2024-03-06T04:33:17;21.92;;;10.63;;
75012;SDS011;63567;49.956;20.130;2024-03-06T04:35:42;23.70;;;11.73;;
75012;SDS011;63567;49.956;20.130;2024-03-06T04:38:07;24.40;;;12.37;;
75012;SDS011;63567;49.956;20.130;2024-03-06T04:40:33;24.13;;;12.75;;
75012;SDS011;63567;49.956;20.130;2024-03-06T04:42:59;24.50;;;12.40;;
75012;SDS011;63567;49.956;20.130;2024-03-06T04:45:25;23.73;;;11.20;;
75012;SDS011;63567;49.956;20.130;2024-03-06T04:47:50;22.13;;;11.40;;
75012;SDS011;63567;49.956;20.130;2024-03-06T04:50:15;23.40;;;10.80;;
75012;SDS011;63567;49.956;20.130;2024-03-06T04:52:42;23.13;;;11.05;;
75012;SDS011;63567;49.956;20.130;2024-03-06T04:55:08;24.95;;;12.23;;
75012;SDS011;63567;49.956;20.130;2024-03-06T04:57:35;23.42;;;10.88;;
75012;SDS011;63567;49.956;20.130;2024-03-06T05:00:02;24.27;;;11.60;;
75012;SDS011;63567;49.956;20.130;2024-03-06T05:02:36;23.10;;;11.13;;
75012;SDS011;63567;49.956;20.130;2024-03-06T05:05:02;21.92;;;11.10;;
75012;SDS011;63567;49.956;20.130;2024-03-06T05:07:28;23.42;;;10.88;;
75012;SDS011;63567;49.956;20.130;2024-03-06T05:09:55;22.83;;;11.93;;
75012;SDS011;63567;49.956;20.130;2024-03-06T05:12:22;21.02;;;10.50;;
75012;SDS011;63567;49.956;20.130;2024-03-06T05:14:47;20.27;;;10.93;;
75012;SDS011;63567;49.956;20.130;2024-03-06T05:17:12;21.93;;;11.77;;
75012;SDS011;63567;49.956;20.130;2024-03-06T05:19:37;21.77;;;10.70;;
75012;SDS011;63567;49.956;20.130;2024-03-06T05:22:03;21.40;;;10.03;;
75012;SDS011;63567;49.956;20.130;2024-03-06T05:24:29;22.17;;;10.55;;
75012;SDS011;63567;49.956;20.130;2024-03-06T05:26:54;23.17;;;11.10;;
75012;SDS011;63567;49.956;20.130;2024-03-06T05:29:20;21.23;;;10.63;;
75012;SDS011;63567;49.956;20.130;2024-03-06T05:31:45;25.35;;;11.68;;
75012;SDS011;63567;49.956;20.130;2024-03-06T05:34:10;22.93;;;10.73;;
75012;SDS011;63567;49.956;20.130;2024-03-06T05:36:36;27.53;;;12.20;;
75012;SDS011;63567;49.956;20.130;2024-03-06T05:39:01;23.93;;;10.87;;
75012;SDS011;63567;49.956;20.130;2024-03-06T05:41:27;25.70;;;11.20;;
75012;SDS011;63567;49.956;20.130;2024-03-06T05:43:52;22.43;;;11.10;;
75012;SDS011;63567;49.956;20.130;2024-03-06T05:46:18;24.87;;;11.43;;
75012;SDS011;63567;49.956;20.130;2024-03-06T05:48:44;26.20;;;11.60;;
75012;SDS011;63567;49.956;20.130;2024-03-06T05:51:09;25.53;;;11.63;;
75012;SDS011;63567;49.956;20.130;2024-03-06T05:53:38;23.90;;;10.10;;
75012;SDS011;63567;49.956;20.130;2024-03-06T05:56:05;22.77;;;11.88;;
75012;SDS011;63567;49.956;20.130;2024-03-06T05:58:31;24.25;;;11.95;;
75012;SDS011;63567;49.956;20.130;2024-03-06T06:00:56;27.37;;;11.73;;
75012;SDS011;63567;49.956;20.130;2024-03-06T06:03:21;26.83;;;12.07;;
75012;SDS011;63567;49.956;20.130;2024-03-06T06:05:47;25.77;;;12.20;;
75012;SDS011;63567;49.956;20.130;2024-03-06T06:08:12;24.00;;;12.27;;
75012;SDS011;63567;49.956;20.130;2024-03-06T06:10:37;26.00;;;12.00;;
75012;SDS011;63567;49.956;20.130;2024-03-06T06:13:02;26.33;;;12.40;;
75012;SDS011;63567;49.956;20.130;2024-03-06T06:15:31;26.38;;;11.82;;
75012;SDS011;63567;49.956;20.130;2024-03-06T06:17:56;25.38;;;11.25;;
75012;SDS011;63567;49.956;20.130;2024-03-06T06:20:22;25.33;;;11.40;;
75012;SDS011;63567;49.956;20.130;2024-03-06T06:22:47;22.50;;;10.80;;
75012;SDS011;63567;49.956;20.130;2024-03-06T06:25:12;22.37;;;11.20;;
75012;SDS011;63567;49.956;20.130;2024-03-06T06:27:38;23.35;;;10.98;;
75012;SDS011;63567;49.956;20.130;2024-03-06T06:30:04;23.35;;;11.70;;
75012;SDS011;63567;49.956;20.130;2024-03-06T06:32:29;20.70;;;10.90;;
75012;SDS011;63567;49.956;20.130;2024-03-06T06:34:55;21.50;;;10.73;;
75012;SDS011;63567;49.956;20.130;2024-03-06T06:37:21;22.02;;;10.93;;
75012;SDS011;63567;49.956;20.130;2024-03-06T06:39:46;23.52;;;11.35;;
75012;SDS011;63567;49.956;20.130;2024-03-06T06:42:11;25.63;;;11.50;;
75012;SDS011;63567;49.956;20.130;2024-03-06T06:44:37;23.02;;;11.48;;
75012;SDS011;63567;49.956;20.130;2024-03-06T06:47:02;25.60;;;12.43;;
75012;SDS011;63567;49.956;20.130;2024-03-06T06:49:28;27.13;;;12.03;;
75012;SDS011;63567;49.956;20.130;2024-03-06T06:51:53;23.90;;;11.00;;
75012;SDS011;63567;49.956;20.130;2024-03-06T06:54:18;26.07;;;12.53;;
75012;SDS011;63567;49.956;20.130;2024-03-06T06:56:44;23.67;;;11.63;;
75012;SDS011;63567;49.956;20.130;2024-03-06T06:59:09;23.27;;;12.33;;
75012;SDS011;63567;49.956;20.130;2024-03-06T07:01:34;24.50;;;12.43;;
75012;SDS011;63567;49.956;20.130;2024-03-06T07:04:00;22.93;;;11.23;;
75012;SDS011;63567;49.956;20.130;2024-03-06T07:06:27;26.33;;;11.55;;
75012;SDS011;63567;49.956;20.130;2024-03-06T07:08:52;27.57;;;11.97;;
75012;SDS011;63567;49.956;20.130;2024-03-06T07:11:17;26.67;;;11.53;;
75012;SDS011;63567;49.956;20.130;2024-03-06T07:13:43;27.75;;;13.25;;
75012;SDS011;63567;49.956;20.130;2024-03-06T07:16:09;22.13;;;12.13;;
75012;SDS011;63567;49.956;20.130;2024-03-06T07:18:34;27.35;;;11.85;;
75012;SDS011;63567;49.956;20.130;2024-03-06T07:20:59;28.42;;;12.48;;
75012;SDS011;63567;49.956;20.130;2024-03-06T07:23:25;32.40;;;13.10;;
75012;SDS011;63567;49.956;20.130;2024-03-06T07:25:50;29.93;;;13.53;;
75012;SDS011;63567;49.956;20.130;2024-03-06T07:28:15;26.83;;;13.25;;
75012;SDS011;63567;49.956;20.130;2024-03-06T07:30:41;24.80;;;12.17;;
75012;SDS011;63567;49.956;20.130;2024-03-06T07:33:06;25.10;;;12.33;;
75012;SDS011;63567;49.956;20.130;2024-03-06T07:35:32;24.40;;;11.73;;
75012;SDS011;63567;49.956;20.130;2024-03-06T07:37:57;24.13;;;11.77;;
75012;SDS011;63567;49.956;20.130;2024-03-06T07:40:23;24.42;;;11.60;;
75012;SDS011;63567;49.956;20.130;2024-03-06T07:42:48;21.90;;;11.97;;
75012;SDS011;63567;49.956;20.130;2024-03-06T07:45:13;24.33;;;11.63;;
75012;SDS011;63567;49.956;20.130;2024-03-06T07:47:40;26.90;;;12.73;;
75012;SDS011;63567;49.956;20.130;2024-03-06T07:50:06;22.70;;;11.80;;
75012;SDS011;63567;49.956;20.130;2024-03-06T07:52:32;26.88;;;12.40;;
75012;SDS011;63567;49.956;20.130;2024-03-06T07:54:57;23.57;;;11.47;;
75012;SDS011;63567;49.956;20.130;2024-03-06T07:57:23;24.95;;;11.60;;
75012;SDS011;63567;49.956;20.130;2024-03-06T07:59:48;26.57;;;13.20;;
75012;SDS011;63567;49.956;20.130;2024-03-06T08:02:14;25.15;;;11.95;;
75012;SDS011;63567;49.956;20.130;2024-03-06T08:04:39;25.33;;;12.37;;
75012;SDS011;63567;49.956;20.130;2024-03-06T08:07:04;23.83;;;12.70;;
75012;SDS011;63567;49.956;20.130;2024-03-06T08:09:30;24.07;;;11.93;;
75012;SDS011;63567;49.956;20.130;2024-03-06T08:11:55;24.47;;;12.87;;
75012;SDS011;63567;49.956;20.130;2024-03-06T08:14:20;23.43;;;12.20;;
75012;SDS011;63567;49.956;20.130;2024-03-06T08:16:45;21.97;;;10.83;;
75012;SDS011;63567;49.956;20.130;2024-03-06T08:19:11;27.00;;;12.80;;
75012;SDS011;63567;49.956;20.130;2024-03-06T08:21:36;22.33;;;12.32;;
75012;SDS011;63567;49.956;20.130;2024-03-06T08:24:02;25.40;;;12.23;;
75012;SDS011;63567;49.956;20.130;2024-03-06T08:26:27;22.02;;;10.75;;
75012;SDS011;63567;49.956;20.130;2024-03-06T08:28:52;24.97;;;13.17;;
75012;SDS011;63567;49.956;20.130;2024-03-06T08:31:18;26.73;;;12.65;;
75012;SDS011;63567;49.956;20.130;2024-03-06T08:33:43;26.33;;;11.93;;
75012;SDS011;63567;49.956;20.130;2024-03-06T08:36:09;24.23;;;11.90;;
75012;SDS011;63567;49.956;20.130;2024-03-06T08:38:34;25.23;;;11.85;;
75012;SDS011;63567;49.956;20.130;2024-03-06T08:41:00;24.53;;;11.73;;
75012;SDS011;63567;49.956;20.130;2024-03-06T08:43:25;22.40;;;11.30;;
75012;SDS011;63567;49.956;20.130;2024-03-06T08:45:51;24.23;;;11.50;;
75012;SDS011;63567;49.956;20.130;2024-03-06T08:48:16;22.98;;;11.93;;
75012;SDS011;63567;49.956;20.130;2024-03-06T08:50:42;25.77;;;12.70;;
75012;SDS011;63567;49.956;20.130;2024-03-06T08:53:07;26.40;;;13.52;;
75012;SDS011;63567;49.956;20.130;2024-03-06T08:55:34;25.20;;;12.30;;
75012;SDS011;63567;49.956;20.130;2024-03-06T08:57:59;24.90;;;12.48;;
75012;SDS011;63567;49.956;20.130;2024-03-06T09:00:26;24.92;;;13.32;;
75012;SDS011;63567;49.956;20.130;2024-03-06T09:02:51;26.17;;;12.48;;
75012;SDS011;63567;49.956;20.130;2024-03-06T09:05:18;26.25;;;12.82;;
75012;SDS011;63567;49.956;20.130;2024-03-06T09:07:43;24.92;;;12.35;;
75012;SDS011;63567;49.956;20.130;2024-03-06T09:10:12;26.97;;;13.27;;
75012;SDS011;63567;49.956;20.130;2024-03-06T09:12:38;26.92;;;12.88;;
75012;SDS011;63567;49.956;20.130;2024-03-06T09:15:03;26.20;;;12.60;;
75012;SDS011;63567;49.956;20.130;2024-03-06T09:17:29;29.02;;;13.30;;
75012;SDS011;63567;49.956;20.130;2024-03-06T09:19:55;25.73;;;12.95;;
75012;SDS011;63567;49.956;20.130;2024-03-06T09:22:20;21.58;;;12.73;;
75012;SDS011;63567;49.956;20.130;2024-03-06T09:24:46;25.38;;;13.00;;
75012;SDS011;63567;49.956;20.130;2024-03-06T09:27:13;23.75;;;12.48;;
75012;SDS011;63567;49.956;20.130;2024-03-06T09:29:39;24.40;;;12.15;;
75012;SDS011;63567;49.956;20.130;2024-03-06T09:32:04;22.90;;;11.82;;
75012;SDS011;63567;49.956;20.130;2024-03-06T09:34:30;25.33;;;12.02;;
75012;SDS011;63567;49.956;20.130;2024-03-06T09:36:55;22.97;;;12.10;;
75012;SDS011;63567;49.956;20.130;2024-03-06T09:39:20;23.97;;;10.97;;
75012;SDS011;63567;49.956;20.130;2024-03-06T09:41:47;25.25;;;12.38;;
75012;SDS011;63567;49.956;20.130;2024-03-06T09:44:13;27.17;;;13.15;;
75012;SDS011;63567;49.956;20.130;2024-03-06T09:46:43;23.17;;;12.25;;
75012;SDS011;63567;49.956;20.130;2024-03-06T09:49:09;28.42;;;12.27;;
75012;SDS011;63567;49.956;20.130;2024-03-06T09:51:36;25.13;;;12.50;;
75012;SDS011;63567;49.956;20.130;2024-03-06T09:54:05;24.90;;;13.27;;
75012;SDS011;63567;49.956;20.130;2024-03-06T09:56:32;24.95;;;12.35;;
75012;SDS011;63567;49.956;20.130;2024-03-06T09:58:58;24.05;;;11.90;;
75012;SDS011;63567;49.956;20.130;2024-03-06T10:01:23;25.53;;;12.57;;
75012;SDS011;63567;49.956;20.130;2024-03-06T10:03:50;25.48;;;11.95;;
75012;SDS011;63567;49.956;20.130;2024-03-06T10:06:16;25.80;;;12.33;;
75012;SDS011;63567;49.956;20.130;2024-03-06T10:08:42;26.65;;;12.85;;
75012;SDS011;63567;49.956;20.130;2024-03-06T10:11:08;27.92;;;13.23;;
75012;SDS011;63567;49.956;20.130;2024-03-06T10:13:35;24.40;;;11.90;;
75012;SDS011;63567;49.956;20.130;2024-03-06T10:16:00;27.30;;;12.83;;
75012;SDS011;63567;49.956;20.130;2024-03-06T10:18:27;25.63;;;13.02;;
75012;SDS011;63567;49.956;20.130;2024-03-06T10:20:53;23.77;;;12.25;;
75012;SDS011;63567;49.956;20.130;2024-03-06T10:23:19;26.10;;;13.30;;
75012;SDS011;63567;49.956;20.130;2024-03-06T10:25:45;25.02;;;12.95;;
75012;SDS011;63567;49.956;20.130;2024-03-06T10:28:15;26.33;;;13.10;;
75012;SDS011;63567;49.956;20.130;2024-03-06T10:30:42;27.45;;;11.85;;
75012;SDS011;63567;49.956;20.130;2024-03-06T10:33:08;22.08;;;11.93;;
75012;SDS011;63567;49.956;20.130;2024-03-06T10:35:34;23.50;;;12.52;;
75012;SDS011;63567;49.956;20.130;2024-03-06T10:38:04;25.27;;;11.70;;
75012;SDS011;63567;49.956;20.130;2024-03-06T10:40:40;23.77;;;11.57;;
75012;SDS011;63567;49.956;20.130;2024-03-06T10:43:07;22.20;;;11.90;;
75012;SDS011;63567;49.956;20.130;2024-03-06T10:45:59;23.95;;;12.65;;
75012;SDS011;63567;49.956;20.130;2024-03-06T10:48:26;25.10;;;12.27;;
75012;SDS011;63567;49.956;20.130;2024-03-06T10:50:54;24.77;;;12.32;;
75012;SDS011;63567;49.956;20.130;2024-03-06T10:53:22;26.27;;;12.98;;
75012;SDS011;63567;49.956;20.130;2024-03-06T10:55:51;21.98;;;11.30;;
75012;SDS011;63567;49.956;20.130;2024-03-06T10:58:17;24.13;;;12.02;;
75012;SDS011;63567;49.956;20.130;2024-03-06T11:00:45;24.15;;;12.45;;
75012;SDS011;63567;49.956;20.130;2024-03-06T11:03:12;23.13;;;12.13;;
75012;SDS011;63567;49.956;20.130;2024-03-06T11:05:38;23.02;;;10.98;;
75012;SDS011;63567;49.956;20.130;2024-03-06T11:08:05;23.80;;;10.90;;
75012;SDS011;63567;49.956;20.130;2024-03-06T11:10:33;20.55;;;12.02;;
75012;SDS011;63567;49.956;20.130;2024-03-06T11:12:59;21.77;;;11.05;;
75012;SDS011;63567;49.956;20.130;2024-03-06T11:15:26;25.02;;;13.05;;
75012;SDS011;63567;49.956;20.130;2024-03-06T11:17:52;22.98;;;11.93;;
75012;SDS011;63567;49.956;20.130;2024-03-06T11:20:19;21.45;;;12.23;;
75012;SDS011;63567;49.956;20.130;2024-03-06T11:28:20;22.92;;;10.65;;
75012;SDS011;63567;49.956;20.130;2024-03-06T11:33:23;20.77;;;11.07;;
75012;SDS011;63567;49.956;20.130;2024-03-06T11:38:55;22.98;;;11.35;;
75012;SDS011;63567;49.956;20.130;2024-03-06T11:41:25;22.33;;;11.55;;
75012;SDS011;63567;49.956;20.130;2024-03-06T11:43:52;21.70;;;10.98;;
75012;SDS011;63567;49.956;20.130;2024-03-06T11:46:20;24.15;;;11.48;;
75012;SDS011;63567;49.956;20.130;2024-03-06T11:48:56;21.95;;;10.90;;
75012;SDS011;63567;49.956;20.130;2024-03-06T11:51:22;23.70;;;11.73;;
75012;SDS011;63567;49.956;20.130;2024-03-06T11:53:51;23.90;;;12.40;;
75012;SDS011;63567;49.956;20.130;2024-03-06T11:56:17;23.27;;;11.57;;
75012;SDS011;63567;49.956;20.130;2024-03-06T11:58:44;23.45;;;12.93;;
75012;SDS011;63567;49.956;20.130;2024-03-06T12:01:10;25.38;;;13.00;;
75012;SDS011;63567;49.956;20.130;2024-03-06T12:03:35;25.10;;;12.60;;
75012;SDS011;63567;49.956;20.130;2024-03-06T12:06:00;26.37;;;12.90;;
75012;SDS011;63567;49.956;20.130;2024-03-06T12:08:27;24.27;;;11.63;;
75012;SDS011;63567;49.956;20.130;2024-03-06T12:10:52;21.80;;;11.73;;
75012;SDS011;63567;49.956;20.130;2024-03-06T12:13:20;24.27;;;13.13;;
75012;SDS011;63567;49.956;20.130;2024-03-06T12:15:45;27.30;;;14.15;;
75012;SDS011;63567;49.956;20.130;2024-03-06T12:18:11;28.27;;;13.85;;
75012;SDS011;63567;49.956;20.130;2024-03-06T12:20:42;28.63;;;14.07;;
75012;SDS011;63567;49.956;20.130;2024-03-06T12:23:18;26.48;;;13.35;;
75012;SDS011;63567;49.956;20.130;2024-03-06T12:25:45;28.58;;;13.95;;
75012;SDS011;63567;49.956;20.130;2024-03-06T12:28:10;26.80;;;13.48;;
75012;SDS011;63567;49.956;20.130;2024-03-06T12:30:40;23.07;;;12.33;;
75012;SDS011;63567;49.956;20.130;2024-03-06T12:33:10;26.50;;;13.70;;
75012;SDS011;63567;49.956;20.130;2024-03-06T12:35:39;27.27;;;12.40;;
75012;SDS011;63567;49.956;20.130;2024-03-06T12:38:14;25.80;;;13.68;;
75012;SDS011;63567;49.956;20.130;2024-03-06T12:43:06;25.35;;;12.43;;
75012;SDS011;63567;49.956;20.130;2024-03-06T12:45:32;25.47;;;12.00;;
75012;SDS011;63567;49.956;20.130;2024-03-06T12:47:57;22.85;;;12.65;;
75012;SDS011;63567;49.956;20.130;2024-03-06T12:50:23;26.33;;;13.00;;
75012;SDS011;63567;49.956;20.130;2024-03-06T12:52:48;25.43;;;12.23;;
75012;SDS011;63567;49.956;20.130;2024-03-06T12:55:13;23.30;;;11.40;;
75012;SDS011;63567;49.956;20.130;2024-03-06T12:57:39;24.58;;;12.30;;
75012;SDS011;63567;49.956;20.130;2024-03-06T13:00:05;22.83;;;11.80;;
75012;SDS011;63567;49.956;20.130;2024-03-06T13:02:36;21.63;;;11.27;;
75012;SDS011;63567;49.956;20.130;2024-03-06T13:05:02;23.43;;;12.10;;
75012;SDS011;63567;49.956;20.130;2024-03-06T13:07:27;24.35;;;13.18;;
75012;SDS011;63567;49.956;20.130;2024-03-06T13:09:52;25.27;;;12.30;;
75012;SDS011;63567;49.956;20.130;2024-03-06T13:12:17;23.83;;;11.90;;
75012;SDS011;63567;49.956;20.130;2024-03-06T13:14:43;21.53;;;11.63;;
75012;SDS011;63567;49.956;20.130;2024-03-06T13:17:08;20.63;;;11.50;;
75012;SDS011;63567;49.956;20.130;2024-03-06T13:19:33;22.53;;;12.47;;
75012;SDS011;63567;49.956;20.130;2024-03-06T13:21:59;24.40;;;12.43;;
75012;SDS011;63567;49.956;20.130;2024-03-06T13:24:24;23.57;;;12.07;;
75012;SDS011;63567;49.956;20.130;2024-03-06T13:26:49;23.40;;;11.83;;
75012;SDS011;63567;49.956;20.130;2024-03-06T13:29:15;23.33;;;12.90;;
75012;SDS011;63567;49.956;20.130;2024-03-06T13:31:41;20.45;;;11.30;;
75012;SDS011;63567;49.956;20.130;2024-03-06T13:34:07;23.08;;;12.48;;
75012;SDS011;63567;49.956;20.130;2024-03-06T13:36:32;27.70;;;12.18;;
75012;SDS011;63567;49.956;20.130;2024-03-06T13:38:57;24.20;;;12.47;;
75012;SDS011;63567;49.956;20.130;2024-03-06T13:41:23;22.10;;;11.70;;
75012;SDS011;63567;49.956;20.130;2024-03-06T13:43:48;22.88;;;11.70;;
75012;SDS011;63567;49.956;20.130;2024-03-06T13:46:13;23.65;;;12.52;;
75012;SDS011;63567;49.956;20.130;2024-03-06T13:48:39;22.58;;;11.75;;
75012;SDS011;63567;49.956;20.130;2024-03-06T13:51:05;21.58;;;10.70;;
75012;SDS011;63567;49.956;20.130;2024-03-06T13:53:30;20.85;;;10.93;;
75012;SDS011;63567;49.956;20.130;2024-03-06T13:55:56;23.13;;;11.65;;
75012;SDS011;63567;49.956;20.130;2024-03-06T13:58:21;25.63;;;11.27;;
75012;SDS011;63567;49.956;20.130;2024-03-06T14:00:47;25.13;;;12.20;;
75012;SDS011;63567;49.956;20.130;2024-03-06T14:03:12;24.30;;;12.83;;
75012;SDS011;63567;49.956;20.130;2024-03-06T14:05:37;25.60;;;14.27;;
75012;SDS011;63567;49.956;20.130;2024-03-06T14:08:04;29.25;;;14.55;;
75012;SDS011;63567;49.956;20.130;2024-03-06T14:10:30;27.30;;;14.60;;
75012;SDS011;63567;49.956;20.130;2024-03-06T14:12:59;25.50;;;13.65;;
75012;SDS011;63567;49.956;20.130;2024-03-06T14:15:24;25.15;;;14.25;;
75012;SDS011;63567;49.956;20.130;2024-03-06T14:17:51;24.83;;;13.35;;